createdAt,value
2019-04-10T00:00:44.367Z,68.87
2019-04-10T00:03:27.942Z,66.93
2019-04-10T00:05:54.202Z,72.33
2019-04-10T00:08:28.867Z,70.13
2019-04-10T00:11:02.764Z,64.43
2019-04-10T00:13:42.789Z,66.33
2019-04-10T00:16:16.032Z,74.35
2019-04-10T00:18:48.955Z,81.63
2019-04-10T00:21:25.206Z,74.73
2019-04-10T00:24:00.449Z,85.27
2019-04-10T00:26:34.386Z,80.57
2019-04-10T00:29:10.769Z,76.60
2019-04-10T00:31:43.199Z,89.83
2019-04-10T00:34:15.924Z,69.73
2019-04-10T00:36:49.160Z,83.80
2019-04-10T00:39:28.769Z,78.37
2019-04-10T00:42:07.156Z,72.73
2019-04-10T00:44:39.964Z,84.63
2019-04-10T00:47:17.034Z,75.10
2019-04-10T00:49:54.038Z,92.57
2019-04-10T00:52:32.407Z,75.80
2019-04-10T00:55:04.297Z,78.40
2019-04-10T00:57:42.645Z,69.87
2019-04-10T01:00:23.559Z,71.40
2019-04-10T01:02:56.915Z,77.23
2019-04-10T01:05:31.171Z,73.50
2019-04-10T01:08:06.731Z,81.70
2019-04-10T01:10:40.289Z,76.43
2019-04-10T01:13:20.885Z,82.67
2019-04-10T01:15:55.166Z,87.60
2019-04-10T01:18:36.063Z,78.53
2019-04-10T01:21:14.483Z,74.30
2019-04-10T01:23:47.295Z,76.63
2019-04-10T01:26:23.387Z,79.13
2019-04-10T01:28:58.546Z,86.60
2019-04-10T01:31:33.637Z,76.97
2019-04-10T01:34:11.484Z,77.77
2019-04-10T01:36:48.845Z,84.50
2019-04-10T01:39:28.970Z,82.30
2019-04-10T01:42:09.270Z,86.70
2019-04-10T01:44:51.139Z,71.30
2019-04-10T01:47:28.910Z,86.47
2019-04-10T01:50:04.393Z,71.67
2019-04-10T01:52:37.429Z,83.50
2019-04-10T01:55:20.125Z,74.87
2019-04-10T01:57:46.509Z,77.80
2019-04-10T02:00:21.772Z,84.97
2019-04-10T02:02:55.931Z,75.33
2019-04-10T02:05:30.769Z,80.73
2019-04-10T02:08:09.000Z,79.27
2019-04-10T02:10:42.550Z,73.07
2019-04-10T02:13:17.134Z,71.73
2019-04-10T02:15:56.732Z,88.77
2019-04-10T02:18:30.507Z,77.63
2019-04-10T02:21:04.553Z,91.13
2019-04-10T02:23:38.542Z,78.93
2019-04-10T02:26:11.558Z,79.73
2019-04-10T02:28:44.698Z,79.73
2019-04-10T02:31:22.007Z,77.17
2019-04-10T02:33:58.041Z,83.77
2019-04-10T02:36:31.881Z,80.37
2019-04-10T02:39:19.057Z,93.27
2019-04-10T02:41:43.949Z,78.40
2019-04-10T02:44:16.504Z,74.27
2019-04-10T02:46:50.201Z,84.07
2019-04-10T02:49:22.745Z,86.32
2019-04-10T02:51:56.924Z,89.83
2019-04-10T02:54:29.106Z,82.67
2019-04-10T02:57:03.435Z,78.27
2019-04-10T02:59:39.721Z,78.53
2019-04-10T03:02:14.015Z,83.17
2019-04-10T03:04:49.111Z,90.00
2019-04-10T03:07:22.002Z,82.40
2019-04-10T03:10:10.267Z,83.47
2019-04-10T03:12:34.009Z,85.10
2019-04-10T03:15:08.611Z,82.37
2019-04-10T03:17:42.475Z,84.30
2019-04-10T03:20:16.157Z,88.13
2019-04-10T03:22:49.277Z,79.13
2019-04-10T03:25:25.321Z,78.10
2019-04-10T03:27:58.858Z,84.47
2019-04-10T03:30:32.573Z,88.17
2019-04-10T03:33:19.090Z,89.43
2019-04-10T03:35:51.404Z,90.53
2019-04-10T03:38:29.965Z,85.67
2019-04-10T03:41:03.986Z,85.30
2019-04-10T03:43:39.467Z,77.93
2019-04-10T03:46:14.564Z,84.53
2019-04-10T03:48:49.427Z,91.13
2019-04-10T03:51:24.848Z,89.63
2019-04-10T03:53:59.062Z,90.37
2019-04-10T03:56:33.972Z,80.07
2019-04-10T03:59:12.359Z,95.60
2019-04-10T04:01:44.043Z,84.57
2019-04-10T04:04:17.521Z,82.60
2019-04-10T04:06:50.244Z,85.70
2019-04-10T04:09:21.991Z,88.83
2019-04-10T04:11:55.844Z,84.27
2019-04-10T04:14:30.508Z,106.47
2019-04-10T04:17:06.018Z,89.27
2019-04-10T04:19:38.067Z,93.22
2019-04-10T04:22:11.280Z,86.33
2019-04-10T04:24:46.119Z,92.97
2019-04-10T04:27:20.121Z,86.90
2019-04-10T04:29:53.104Z,83.33
2019-04-10T04:32:24.683Z,85.63
2019-04-10T04:35:00.631Z,93.90
2019-04-10T04:37:35.776Z,89.00
2019-04-10T04:40:09.036Z,100.13
2019-04-10T04:42:43.165Z,83.93
2019-04-10T04:45:17.366Z,88.73
2019-04-10T04:47:50.399Z,93.13
2019-04-10T04:50:24.618Z,94.30
2019-04-10T04:52:59.022Z,104.47
2019-04-10T04:55:33.864Z,94.43
2019-04-10T04:58:08.034Z,85.57
2019-04-10T05:00:42.443Z,88.40
2019-04-10T05:03:14.508Z,97.43
2019-04-10T05:05:46.404Z,87.37
2019-04-10T05:08:21.815Z,98.83
2019-04-10T05:10:56.074Z,87.13
2019-04-10T05:13:28.468Z,88.80
2019-04-10T05:16:03.927Z,86.23
2019-04-10T05:18:37.288Z,96.47
2019-04-10T05:21:10.656Z,82.07
2019-04-10T05:23:47.012Z,83.40
2019-04-10T05:26:19.285Z,79.47
2019-04-10T05:29:00.546Z,81.23
2019-04-10T05:31:37.402Z,82.55
2019-04-10T05:34:15.767Z,83.57
2019-04-10T05:36:51.239Z,86.43
2019-04-10T05:39:25.267Z,78.57
2019-04-10T05:42:02.402Z,74.33
2019-04-10T05:44:40.206Z,73.67
2019-04-10T05:47:13.688Z,80.70
2019-04-10T05:49:55.548Z,72.90
2019-04-10T05:52:41.347Z,77.73
2019-04-10T05:55:30.957Z,89.63
2019-04-10T05:58:15.440Z,73.23
2019-04-10T06:00:54.123Z,79.43
2019-04-10T06:03:30.328Z,74.20
2019-04-10T06:06:17.184Z,82.13
2019-04-10T06:08:58.756Z,81.50
2019-04-10T06:11:35.065Z,66.83
2019-04-10T06:14:10.066Z,78.07
2019-04-10T06:16:48.957Z,87.20
2019-04-10T06:19:26.849Z,82.00
2019-04-10T06:22:01.001Z,83.60
2019-04-10T06:24:36.891Z,86.53
2019-04-10T06:27:17.024Z,75.30
2019-04-10T06:29:59.429Z,85.40
2019-04-10T06:32:37.729Z,85.40
2019-04-10T06:35:11.282Z,85.60
2019-04-10T06:37:48.634Z,78.50
2019-04-10T06:40:28.720Z,72.40
2019-04-10T06:43:04.427Z,85.17
2019-04-10T06:45:42.200Z,80.80
2019-04-10T06:48:19.253Z,69.10
2019-04-10T06:50:58.192Z,79.83
2019-04-10T06:53:33.253Z,82.90
2019-04-10T06:56:09.908Z,80.17
2019-04-10T06:58:45.844Z,66.33
2019-04-10T07:01:24.500Z,75.77
2019-04-10T07:04:06.903Z,70.10
2019-04-10T07:06:50.531Z,74.33
2019-04-10T07:09:27.986Z,78.97
2019-04-10T07:12:04.740Z,87.40
2019-04-10T07:14:44.013Z,73.13
2019-04-10T07:17:14.490Z,78.17
2019-04-10T07:19:47.304Z,73.97
2019-04-10T07:22:21.369Z,75.43
2019-04-10T07:24:56.747Z,77.47
2019-04-10T07:27:33.523Z,72.83
2019-04-10T07:30:14.439Z,71.33
2019-04-10T07:33:09.927Z,80.65
2019-04-10T07:35:56.534Z,79.00
2019-04-10T07:38:39.355Z,75.90
2019-04-10T07:41:25.942Z,72.57
2019-04-10T07:44:16.713Z,73.63
2019-04-10T07:46:52.991Z,69.10
2019-04-10T07:49:31.806Z,70.47
2019-04-10T07:52:09.486Z,76.30
2019-04-10T07:54:44.986Z,65.67
2019-04-10T07:57:32.803Z,74.30
2019-04-10T08:00:07.247Z,74.23
2019-04-10T08:02:40.973Z,82.73
2019-04-10T08:05:18.840Z,77.77
2019-04-10T08:07:56.450Z,72.10
2019-04-10T08:10:30.686Z,83.40
2019-04-10T08:13:04.545Z,79.80
2019-04-10T08:15:38.094Z,69.20
2019-04-10T08:18:12.272Z,69.20
2019-04-10T08:20:46.673Z,69.27
2019-04-10T08:23:21.844Z,75.08
2019-04-10T08:25:55.958Z,72.53
2019-04-10T08:28:30.707Z,70.17
2019-04-10T08:31:04.313Z,73.05
2019-04-10T08:33:38.822Z,71.65
2019-04-10T08:36:10.998Z,70.00
2019-04-10T08:38:43.976Z,63.13
2019-04-10T08:41:17.202Z,72.40
2019-04-10T08:43:50.353Z,90.87
2019-04-10T08:46:21.920Z,85.20
2019-04-10T08:48:56.629Z,76.13
2019-04-10T08:51:31.401Z,82.60
2019-04-10T08:54:11.999Z,83.43
2019-04-10T08:56:44.920Z,66.07
2019-04-10T08:59:17.303Z,72.30
2019-04-10T09:01:50.412Z,73.00
2019-04-10T09:04:26.783Z,95.33
2019-04-10T09:07:04.264Z,68.73
2019-04-10T09:09:38.241Z,66.57
2019-04-10T09:12:13.607Z,69.87
2019-04-10T09:14:59.262Z,78.70
2019-04-10T09:17:33.428Z,73.27
2019-04-10T09:20:06.865Z,72.67
2019-04-10T09:23:06.679Z,70.80
2019-04-10T09:25:16.092Z,66.60
2019-04-10T09:27:50.419Z,71.47
2019-04-10T09:30:24.785Z,74.20
2019-04-10T09:32:57.043Z,73.30
2019-04-10T09:35:29.513Z,73.50
2019-04-10T09:38:02.249Z,72.63
2019-04-10T09:40:36.247Z,80.50
2019-04-10T09:43:09.343Z,76.93
2019-04-10T09:45:42.232Z,74.60
2019-04-10T09:48:19.007Z,79.33
2019-04-10T09:50:53.269Z,73.13
2019-04-10T09:53:30.371Z,76.20
2019-04-10T09:56:03.212Z,76.93
2019-04-10T09:58:36.392Z,74.07
2019-04-10T10:01:13.721Z,75.07
2019-04-10T10:03:48.771Z,69.60
2019-04-10T10:06:29.804Z,70.60
2019-04-10T10:08:57.178Z,69.32
2019-04-10T10:11:31.495Z,78.53
2019-04-10T10:14:04.297Z,86.23
2019-04-10T10:16:38.625Z,75.73
2019-04-10T10:19:12.005Z,85.20
2019-04-10T10:21:50.555Z,67.80
2019-04-10T10:24:24.571Z,80.03
2019-04-10T10:26:56.304Z,77.50
2019-04-10T10:29:30.128Z,72.77
2019-04-10T10:32:02.614Z,72.27
2019-04-10T10:34:38.648Z,73.30
2019-04-10T10:37:10.966Z,73.65
2019-04-10T10:39:45.308Z,79.97
2019-04-10T10:42:19.468Z,75.73
2019-04-10T10:44:58.483Z,77.20
2019-04-10T10:47:32.628Z,88.27
2019-04-10T10:50:06.636Z,92.50
2019-04-10T10:52:39.800Z,82.55
2019-04-10T10:55:13.684Z,85.03
2019-04-10T10:58:00.359Z,78.30
2019-04-10T11:00:32.162Z,90.70
2019-04-10T11:03:06.434Z,73.67
2019-04-10T11:05:42.272Z,70.93
2019-04-10T11:08:20.838Z,83.60
2019-04-10T11:10:57.193Z,81.50
2019-04-10T11:13:28.863Z,83.40
2019-04-10T11:16:04.273Z,92.93
2019-04-10T11:18:38.108Z,72.07
2019-04-10T11:21:16.650Z,76.27
2019-04-10T11:23:53.343Z,79.70
2019-04-10T11:26:30.252Z,79.83
2019-04-10T11:29:05.576Z,84.97
2019-04-10T11:31:39.813Z,88.77
2019-04-10T11:34:14.225Z,74.77
2019-04-10T11:36:50.960Z,76.13
2019-04-10T11:39:26.338Z,80.60
2019-04-10T11:41:57.826Z,79.43
2019-04-10T11:44:45.675Z,77.37
2019-04-10T11:47:17.407Z,70.17
2019-04-10T11:49:49.977Z,75.10
2019-04-10T11:52:33.763Z,82.95
2019-04-10T11:55:08.777Z,72.90
2019-04-10T11:57:42.139Z,73.00
2019-04-10T12:00:17.505Z,82.57
2019-04-10T12:02:52.885Z,84.73
2019-04-10T12:05:28.796Z,89.80
2019-04-10T12:08:28.400Z,76.57
2019-04-10T12:13:12.339Z,77.43
2019-04-10T12:15:45.106Z,79.77
2019-04-10T12:18:19.404Z,86.47
2019-04-10T12:20:51.529Z,76.45
2019-04-10T12:23:27.143Z,87.27
2019-04-10T12:25:59.134Z,81.83
2019-04-10T12:28:32.369Z,84.60
2019-04-10T12:31:06.017Z,81.67
2019-04-10T12:33:52.793Z,88.63
2019-04-10T12:36:31.014Z,92.90
2019-04-10T12:39:16.330Z,87.87
2019-04-10T12:41:52.060Z,95.00
2019-04-10T12:44:26.005Z,88.97
2019-04-10T12:46:59.542Z,90.80
2019-04-10T12:49:33.972Z,85.70
2019-04-10T12:52:08.108Z,86.23
2019-04-10T12:54:40.546Z,82.80
2019-04-10T12:57:13.169Z,94.60
2019-04-10T12:59:47.822Z,91.17
2019-04-10T13:02:20.589Z,94.10
2019-04-10T13:04:54.429Z,102.37
2019-04-10T13:07:26.172Z,86.80
2019-04-10T13:09:59.190Z,99.75
2019-04-10T13:12:33.879Z,102.07
2019-04-10T13:15:19.315Z,93.93
2019-04-10T13:17:51.487Z,95.07
2019-04-10T13:20:26.007Z,102.60
2019-04-10T13:23:04.947Z,105.50
2019-04-10T13:25:54.937Z,88.77
2019-04-10T13:28:17.799Z,95.10
2019-04-10T13:30:53.681Z,92.80
2019-04-10T13:33:25.401Z,108.23
2019-04-10T13:36:11.756Z,100.23
2019-04-10T13:38:50.960Z,100.17
2019-04-10T13:41:28.239Z,99.57
2019-04-10T13:44:02.569Z,91.23
2019-04-10T13:46:37.245Z,93.03
2019-04-10T13:49:22.555Z,97.23
2019-04-10T13:51:56.246Z,104.30
2019-04-10T13:54:33.043Z,103.00
2019-04-10T13:57:05.797Z,98.72
2019-04-10T13:59:41.465Z,101.83
2019-04-10T14:02:21.533Z,104.47
2019-04-10T14:05:00.264Z,102.67
2019-04-10T14:07:33.928Z,110.20
2019-04-10T14:10:12.560Z,112.10
2019-04-10T14:12:44.675Z,107.67
2019-04-10T14:15:18.553Z,104.07
2019-04-10T14:17:50.739Z,104.07
2019-04-10T14:20:27.031Z,109.75
2019-04-10T14:23:12.916Z,101.33
2019-04-10T14:26:04.598Z,103.83
2019-04-10T14:28:38.755Z,116.37
2019-04-10T14:31:23.209Z,119.83
2019-04-10T14:33:56.598Z,114.90
2019-04-10T14:36:31.883Z,118.00
2019-04-10T14:39:17.857Z,107.32
2019-04-10T14:41:48.218Z,110.83
2019-04-10T14:44:20.810Z,115.13
2019-04-10T14:46:54.081Z,109.43
2019-04-10T14:49:27.267Z,116.05
2019-04-10T14:52:00.920Z,115.07
2019-04-10T14:54:32.856Z,119.17
2019-04-10T14:57:06.546Z,109.78
2019-04-10T14:59:40.630Z,110.07
2019-04-10T15:02:14.823Z,114.87
2019-04-10T15:04:49.110Z,112.72
2019-04-10T15:07:22.709Z,115.00
2019-04-10T15:09:56.097Z,110.90
2019-04-10T15:12:30.244Z,111.93
2019-04-10T15:15:03.862Z,110.50
2019-04-10T15:17:36.197Z,113.27
2019-04-10T15:20:09.070Z,128.40
2019-04-10T15:22:42.182Z,114.33
2019-04-10T15:25:15.699Z,120.97
2019-04-10T15:27:53.661Z,122.07
2019-04-10T15:30:27.032Z,120.50
2019-04-10T15:33:00.422Z,113.87
2019-04-10T15:35:32.942Z,123.73
2019-04-10T15:38:06.296Z,113.80
2019-04-10T15:40:42.439Z,123.60
2019-04-10T15:43:18.818Z,117.73
2019-04-10T15:45:51.116Z,112.03
2019-04-10T15:48:25.133Z,123.43
2019-04-10T15:50:56.686Z,124.57
2019-04-10T15:53:32.953Z,119.63
2019-04-10T15:56:08.153Z,117.27
2019-04-10T15:58:42.174Z,124.87
2019-04-10T16:01:18.640Z,120.73
2019-04-10T16:03:58.987Z,125.20
2019-04-10T16:06:33.473Z,130.70
2019-04-10T16:09:09.230Z,123.00
2019-04-10T16:12:20.791Z,121.67
2019-04-10T16:14:59.058Z,123.20
2019-04-10T16:17:52.560Z,123.87
2019-04-10T16:20:32.092Z,134.17
2019-04-10T16:23:12.257Z,116.83
2019-04-10T16:25:54.495Z,116.33
2019-04-10T16:28:30.056Z,122.40
2019-04-10T16:31:05.512Z,117.30
2019-04-10T16:33:44.599Z,119.47
2019-04-10T16:36:19.303Z,136.97
2019-04-10T16:38:53.326Z,115.93
2019-04-10T16:42:00.124Z,117.73
2019-04-10T16:44:55.667Z,116.83
2019-04-10T16:47:50.854Z,116.33
2019-04-10T16:50:46.472Z,119.73
2019-04-10T16:53:41.332Z,130.63
2019-04-10T16:56:36.017Z,136.40
2019-04-10T16:59:29.919Z,130.10
2019-04-10T17:02:56.648Z,133.10
2019-04-10T17:05:18.529Z,138.83
2019-04-10T17:07:52.064Z,133.90
2019-04-10T17:10:34.262Z,134.97
2019-04-10T17:13:16.247Z,146.50
2019-04-10T17:15:55.586Z,146.87
2019-04-10T17:18:28.912Z,158.87
2019-04-10T17:21:08.994Z,155.87
2019-04-10T17:23:45.099Z,158.43
2019-04-10T17:26:18.976Z,160.03
2019-04-10T17:28:53.468Z,169.43
2019-04-10T17:31:25.118Z,172.13
2019-04-10T17:33:57.024Z,171.20
2019-04-10T17:36:32.693Z,161.83
2019-04-10T17:39:19.307Z,162.13
2019-04-10T17:41:57.907Z,165.83
2019-04-10T17:44:38.122Z,163.03
2019-04-10T17:47:16.593Z,166.97
2019-04-10T17:49:53.875Z,166.83
2019-04-10T17:52:27.110Z,178.53
2019-04-10T17:55:03.197Z,167.23
2019-04-10T17:57:43.360Z,176.00
2019-04-10T18:00:45.314Z,163.17
2019-04-10T18:03:46.281Z,154.17
2019-04-10T18:06:31.151Z,176.22
2019-04-10T18:09:29.005Z,168.20
2019-04-10T18:12:26.210Z,175.40
2019-04-10T18:15:20.080Z,181.87
2019-04-10T18:18:13.721Z,165.47
2019-04-10T18:20:46.520Z,173.65
2019-04-10T18:23:25.203Z,176.12
2019-04-10T18:26:06.846Z,162.70
2019-04-10T18:28:40.079Z,171.00
2019-04-10T18:31:14.283Z,172.53
2019-04-10T18:33:51.102Z,162.60
2019-04-10T18:36:32.185Z,170.13
2019-04-10T18:39:14.060Z,182.43
2019-04-10T18:41:49.114Z,187.13
2019-04-10T18:44:22.767Z,208.87
2019-04-10T18:47:00.680Z,178.33
2019-04-10T18:49:35.831Z,177.53
2019-04-10T18:52:13.253Z,171.13
2019-04-10T18:54:46.035Z,170.10
2019-04-10T18:57:20.000Z,166.80
2019-04-10T19:00:15.241Z,171.97
2019-04-10T19:03:05.925Z,168.87
2019-04-10T19:05:43.599Z,164.73
2019-04-10T19:08:16.381Z,159.07
2019-04-10T19:11:19.165Z,178.20
2019-04-10T19:14:00.760Z,174.80
2019-04-10T19:16:55.165Z,172.53
2019-04-10T19:19:55.230Z,175.00
2019-04-10T19:22:52.778Z,174.13
2019-04-10T19:25:45.665Z,162.67
2019-04-10T19:28:46.565Z,168.00
2019-04-10T19:31:43.622Z,167.53
2019-04-10T19:34:39.305Z,168.80
2019-04-10T19:37:30.368Z,168.87
2019-04-10T19:40:23.560Z,166.03
2019-04-10T19:43:16.346Z,166.50
2019-04-10T19:45:48.244Z,161.23
2019-04-10T19:48:23.440Z,163.53
2019-04-10T19:51:02.981Z,175.00
2019-04-10T19:53:39.665Z,170.67
2019-04-10T19:56:12.704Z,173.13
2019-04-10T19:58:46.091Z,176.17
2019-04-10T20:01:19.111Z,172.50
2019-04-10T20:03:52.723Z,154.60
2019-04-10T20:06:28.434Z,178.67
2019-04-10T20:09:01.544Z,172.10
2019-04-10T20:11:42.133Z,171.07
2019-04-10T20:14:14.211Z,173.97
2019-04-10T20:16:49.397Z,179.50
2019-04-10T20:19:22.406Z,187.92
2019-04-10T20:21:56.436Z,176.53
2019-04-10T20:24:30.037Z,186.40
2019-04-10T20:27:03.632Z,161.20
2019-04-10T20:29:37.679Z,173.63
2019-04-10T20:32:12.389Z,177.37
2019-04-10T20:34:45.818Z,174.67
2019-04-10T20:37:21.223Z,169.35
2019-04-10T20:39:58.196Z,178.50
2019-04-10T20:42:32.334Z,181.77
2019-04-10T20:45:05.114Z,198.33
2019-04-10T20:47:37.693Z,179.77
2019-04-10T20:50:10.258Z,180.23
2019-04-10T20:52:41.762Z,180.63
2019-04-10T20:55:13.986Z,179.90
2019-04-10T20:57:48.207Z,181.18
2019-04-10T21:00:38.647Z,184.83
2019-04-10T21:03:13.545Z,179.87
2019-04-10T21:05:51.002Z,176.70
2019-04-10T21:08:29.739Z,182.27
2019-04-10T21:11:11.770Z,175.23
2019-04-10T21:13:48.990Z,180.17
2019-04-10T21:16:21.102Z,176.53
2019-04-10T21:19:00.609Z,184.20
2019-04-10T21:21:47.487Z,170.67
2019-04-10T21:24:27.355Z,172.50
2019-04-10T21:27:01.337Z,178.67
2019-04-10T21:30:03.791Z,188.40
2019-04-10T21:33:06.269Z,177.27
2019-04-10T21:35:56.043Z,191.00
2019-04-10T21:38:34.664Z,180.70
2019-04-10T21:41:16.758Z,181.87
2019-04-10T21:43:52.524Z,189.97
2019-04-10T21:46:34.640Z,194.33
2019-04-10T21:56:18.023Z,173.85
2019-04-10T21:59:16.718Z,181.03
2019-04-10T22:02:19.628Z,190.43
2019-04-10T22:05:16.818Z,189.77
2019-04-10T22:08:21.368Z,176.73
2019-04-10T22:11:19.681Z,188.13
2019-04-10T22:14:22.668Z,171.72
2019-04-10T22:17:24.686Z,162.77
2019-04-10T22:20:31.834Z,163.10
2019-04-10T22:23:24.487Z,136.30
2019-04-10T22:26:19.959Z,133.57
2019-04-10T22:29:10.667Z,133.57
2019-04-10T22:32:06.411Z,121.30
2019-04-10T22:34:50.586Z,131.80
2019-04-10T22:37:42.590Z,123.67
2019-04-10T22:40:33.395Z,120.07
2019-04-10T22:43:09.599Z,116.67
2019-04-10T22:46:01.046Z,113.17
2019-04-10T22:48:53.428Z,107.03
2019-04-10T22:51:46.043Z,108.40
2019-04-10T22:54:38.844Z,111.27
2019-04-10T22:57:25.291Z,100.50
2019-04-10T23:00:05.448Z,97.93
2019-04-10T23:02:50.785Z,92.00
2019-04-10T23:05:27.214Z,90.20
2019-04-10T23:08:13.476Z,91.93
2019-04-10T23:11:03.569Z,94.63
2019-04-10T23:13:50.075Z,97.33
2019-04-10T23:16:24.143Z,83.73
2019-04-10T23:19:12.026Z,85.27
2019-04-10T23:21:57.061Z,80.53
2019-04-10T23:24:40.386Z,81.57
2019-04-10T23:27:51.967Z,82.57
2019-04-10T23:30:41.344Z,77.80
2019-04-10T23:33:21.313Z,67.80
2019-04-10T23:35:59.977Z,59.30
2019-04-10T23:38:41.688Z,61.80
2019-04-10T23:41:33.783Z,63.13
2019-04-10T23:44:16.472Z,61.37
2019-04-10T23:46:58.326Z,65.77
2019-04-10T23:50:12.165Z,60.47
2019-04-10T23:53:02.485Z,67.13
2019-04-10T23:56:06.249Z,71.02
2019-04-10T23:59:05.299Z,65.33
